createdAt,value
2023-03-05T00:01:15.505Z,96539.28
2023-03-05T00:03:42.620Z,96547.19
2023-03-05T00:06:09.860Z,96548.53
2023-03-05T00:08:37.221Z,96543.66
2023-03-05T00:11:10.350Z,96544.66
2023-03-05T00:13:38.550Z,96538.63
2023-03-05T00:16:08.785Z,96532.09
2023-03-05T00:18:35.818Z,96544.50
2023-03-05T00:21:03.321Z,96541.88
2023-03-05T00:23:30.446Z,96518.06
2023-03-05T00:26:00.855Z,96532.31
2023-03-05T00:28:27.809Z,96531.53
2023-03-05T00:30:54.769Z,96519.88
2023-03-05T00:33:22.131Z,96523.94
2023-03-05T00:35:49.247Z,96515.09
2023-03-05T00:38:16.674Z,96519.16
2023-03-05T00:40:43.570Z,96518.56
2023-03-05T00:43:11.142Z,96521.28
2023-03-05T00:45:39.117Z,96522.22
2023-03-05T00:48:06.316Z,96522.03
2023-03-05T00:50:33.935Z,96517.59
2023-03-05T00:53:03.893Z,96515.00
2023-03-05T00:55:36.670Z,96480.56
2023-03-05T00:58:06.690Z,96512.97
2023-03-05T01:00:37.127Z,96516.13
2023-03-05T01:03:04.772Z,96520.59
2023-03-05T01:05:32.105Z,96516.72
2023-03-05T01:07:59.197Z,96505.41
2023-03-05T01:10:32.327Z,96505.81
2023-03-05T01:12:59.184Z,96510.16
2023-03-05T01:15:26.409Z,96508.66
2023-03-05T01:17:53.556Z,96504.50
2023-03-05T01:20:22.328Z,96509.00
2023-03-05T01:22:49.346Z,96503.63
2023-03-05T01:25:17.475Z,96498.75
2023-03-05T01:27:44.927Z,96508.53
2023-03-05T01:30:14.100Z,96506.84
2023-03-05T01:32:41.316Z,96506.63
2023-03-05T01:35:09.058Z,96511.09
2023-03-05T01:37:35.920Z,96500.34
2023-03-05T01:40:03.127Z,96484.84
2023-03-05T01:42:30.431Z,96480.31
2023-03-05T01:45:03.607Z,96483.28
2023-03-05T01:47:30.821Z,96486.69
2023-03-05T01:49:57.884Z,96481.03
2023-03-05T01:52:27.679Z,96478.34
2023-03-05T01:54:59.753Z,96456.34
2023-03-05T01:57:40.268Z,96476.06
2023-03-05T02:00:13.994Z,96476.06
2023-03-05T02:02:43.565Z,96475.50
2023-03-05T02:05:27.209Z,96483.56
2023-03-05T02:08:03.969Z,96485.25
2023-03-05T02:10:34.190Z,96490.66
2023-03-05T02:13:04.589Z,96487.47
2023-03-05T02:15:33.622Z,96462.09
2023-03-05T02:18:01.671Z,96481.09
2023-03-05T02:20:31.552Z,96480.91
2023-03-05T02:22:58.573Z,96483.41
2023-03-05T02:25:27.956Z,96486.66
2023-03-05T02:28:00.477Z,96497.69
2023-03-05T02:30:28.852Z,96494.94
2023-03-05T02:32:55.856Z,96489.03
2023-03-05T02:35:23.800Z,96489.78
2023-03-05T02:37:51.427Z,96487.91
2023-03-05T02:40:18.666Z,96501.38
2023-03-05T02:42:46.723Z,96495.25
2023-03-05T02:45:15.550Z,96505.09
2023-03-05T02:47:42.519Z,96504.06
2023-03-05T02:50:11.821Z,96502.69
2023-03-05T02:52:39.515Z,96426.22
2023-03-05T02:55:11.877Z,96502.34
2023-03-05T02:57:40.399Z,96496.41
2023-03-05T03:00:08.565Z,96508.63
2023-03-05T03:02:35.681Z,96516.06
2023-03-05T03:05:02.591Z,96504.91
2023-03-05T03:07:30.637Z,96502.31
2023-03-05T03:09:57.606Z,96492.56
2023-03-05T03:12:24.456Z,96489.34
2023-03-05T03:14:51.827Z,96504.41
2023-03-05T03:17:19.176Z,96493.97
2023-03-05T03:19:46.562Z,96501.53
2023-03-05T03:22:15.574Z,96502.03
2023-03-05T03:24:44.082Z,96496.22
2023-03-05T03:27:11.065Z,96492.50
2023-03-05T03:29:38.504Z,96488.88
2023-03-05T03:32:05.795Z,96483.81
2023-03-05T03:34:32.679Z,96488.53
2023-03-05T03:36:59.521Z,96492.69
2023-03-05T03:39:26.578Z,96484.53
2023-03-05T03:41:53.761Z,96486.13
2023-03-05T03:44:21.775Z,96484.16
2023-03-05T03:46:50.603Z,96479.66
2023-03-05T03:49:25.974Z,96483.34
2023-03-05T03:51:58.308Z,96475.78
2023-03-05T03:54:25.669Z,96487.50
2023-03-05T03:56:52.915Z,96480.72
2023-03-05T03:59:19.814Z,96475.59
2023-03-05T04:01:47.985Z,96472.09
2023-03-05T04:04:15.543Z,96474.56
2023-03-05T04:06:42.515Z,96487.94
2023-03-05T04:09:09.722Z,96481.41
2023-03-05T04:11:37.851Z,96485.13
2023-03-05T04:14:05.945Z,96482.25
2023-03-05T04:16:33.219Z,96479.56
2023-03-05T04:19:00.222Z,96481.41
2023-03-05T04:21:27.337Z,96481.59
2023-03-05T04:23:54.169Z,96468.25
2023-03-05T04:26:21.111Z,96485.34
2023-03-05T04:28:48.642Z,96477.28
2023-03-05T04:31:15.847Z,96452.41
2023-03-05T04:33:42.972Z,96470.13
2023-03-05T04:36:10.051Z,96480.34
2023-03-05T04:38:36.992Z,96485.50
2023-03-05T04:41:04.222Z,96483.78
2023-03-05T04:43:31.345Z,96477.03
2023-03-05T04:45:58.762Z,96479.47
2023-03-05T04:48:25.792Z,96469.81
2023-03-05T04:50:52.782Z,96473.69
2023-03-05T04:53:19.667Z,96480.22
2023-03-05T04:55:46.600Z,96492.06
2023-03-05T04:58:13.464Z,96477.41
2023-03-05T05:00:40.393Z,96484.28
2023-03-05T05:03:07.615Z,96493.72
2023-03-05T05:05:34.555Z,96492.47
2023-03-05T05:08:01.571Z,96501.13
2023-03-05T05:10:28.560Z,96494.63
2023-03-05T05:12:55.477Z,96493.66
2023-03-05T05:15:22.507Z,96482.97
2023-03-05T05:17:49.502Z,96486.50
2023-03-05T05:20:17.385Z,96484.22
2023-03-05T05:22:44.539Z,96493.41
2023-03-05T05:25:11.999Z,96460.50
2023-03-05T05:27:40.939Z,96487.88
2023-03-05T05:30:08.661Z,96486.69
2023-03-05T05:32:35.930Z,96484.50
2023-03-05T05:35:04.129Z,96497.28
2023-03-05T05:37:31.133Z,96495.13
2023-03-05T05:39:58.278Z,96497.88
2023-03-05T05:42:25.486Z,96501.91
2023-03-05T05:44:53.029Z,96508.06
2023-03-05T05:47:20.129Z,96493.28
2023-03-05T05:49:47.041Z,96501.25
2023-03-05T05:52:14.331Z,96498.84
2023-03-05T05:54:41.229Z,96509.16
2023-03-05T05:57:08.491Z,96510.69
2023-03-05T05:59:35.558Z,96502.22
2023-03-05T06:02:02.510Z,96504.19
2023-03-05T06:04:29.609Z,96515.91
2023-03-05T06:06:56.729Z,96510.00
2023-03-05T06:09:23.676Z,96524.59
2023-03-05T06:11:50.663Z,96514.13
2023-03-05T06:14:17.687Z,96520.16
2023-03-05T06:16:44.979Z,96526.88
2023-03-05T06:19:13.800Z,96522.94
2023-03-05T06:21:41.027Z,96536.50
2023-03-05T06:24:08.116Z,96525.50
2023-03-05T06:26:35.094Z,96543.84
2023-03-05T06:29:02.582Z,96537.88
2023-03-05T06:31:30.422Z,96536.66
2023-03-05T06:34:03.823Z,96536.13
2023-03-05T06:36:31.447Z,96539.81
2023-03-05T06:38:59.017Z,96546.81
2023-03-05T06:41:28.849Z,96547.41
2023-03-05T06:43:56.192Z,96534.00
2023-03-05T06:46:29.188Z,96545.41
2023-03-05T06:48:57.834Z,96542.94
2023-03-05T06:51:30.795Z,96535.94
2023-03-05T06:54:02.800Z,96518.69
2023-03-05T06:56:30.087Z,96531.84
2023-03-05T06:58:57.402Z,96535.88
2023-03-05T07:01:24.474Z,96534.84
2023-03-05T07:03:53.728Z,96535.44
2023-03-05T07:06:21.664Z,96538.19
2023-03-05T07:08:49.264Z,96534.06
2023-03-05T07:11:19.573Z,96530.19
2023-03-05T07:13:50.166Z,96532.16
2023-03-05T07:16:26.439Z,96527.91
2023-03-05T07:18:54.212Z,96505.91
2023-03-05T07:21:27.370Z,96522.41
2023-03-05T07:23:55.704Z,96519.78
2023-03-05T07:26:23.298Z,96515.63
2023-03-05T07:28:50.584Z,96522.19
2023-03-05T07:31:30.204Z,96477.84
2023-03-05T07:34:03.195Z,96525.22
2023-03-05T07:36:30.926Z,96497.19
2023-03-05T07:38:57.930Z,96521.06
2023-03-05T07:41:24.995Z,96502.03
2023-03-05T07:43:54.095Z,96510.19
2023-03-05T07:46:25.060Z,96499.13
2023-03-05T07:48:52.722Z,96506.66
2023-03-05T07:51:20.448Z,96506.31
2023-03-05T07:53:49.485Z,96500.94
2023-03-05T07:56:29.060Z,96498.09
2023-03-05T07:58:56.056Z,96480.13
2023-03-05T08:01:23.333Z,96500.69
2023-03-05T08:03:50.403Z,96481.19
2023-03-05T08:06:17.601Z,96492.31
2023-03-05T08:08:45.003Z,96472.72
2023-03-05T08:11:14.429Z,96486.97
2023-03-05T08:13:42.471Z,96488.03
2023-03-05T08:16:14.133Z,96480.75
2023-03-05T08:18:44.804Z,96472.56
2023-03-05T08:21:20.051Z,96490.13
2023-03-05T08:23:47.322Z,96489.22
2023-03-05T08:26:18.896Z,96466.03
2023-03-05T08:28:46.112Z,96468.50
2023-03-05T08:31:14.736Z,96472.91
2023-03-05T08:33:43.106Z,96467.22
2023-03-05T08:36:10.724Z,96470.22
2023-03-05T08:38:37.912Z,96455.41
2023-03-05T08:41:05.262Z,96468.00
2023-03-05T08:43:35.417Z,96460.66
2023-03-05T08:46:02.985Z,96454.56
2023-03-05T08:48:30.449Z,96461.09
2023-03-05T08:51:00.830Z,96460.22
2023-03-05T08:53:27.688Z,96439.78
2023-03-05T08:55:59.368Z,96443.19
2023-03-05T08:58:26.899Z,96436.19
2023-03-05T09:00:53.843Z,96436.50
2023-03-05T09:03:20.929Z,96441.13
2023-03-05T09:05:48.068Z,96439.53
2023-03-05T09:08:15.445Z,96433.72
2023-03-05T09:10:46.333Z,96435.00
2023-03-05T09:13:13.337Z,96440.41
2023-03-05T09:15:40.318Z,96433.25
2023-03-05T09:18:09.105Z,96437.84
2023-03-05T09:20:36.871Z,96437.03
2023-03-05T09:23:04.305Z,96444.94
2023-03-05T09:25:31.498Z,96439.34
2023-03-05T09:27:58.449Z,96429.94
2023-03-05T09:30:27.787Z,96412.38
2023-03-05T09:32:55.110Z,96407.84
2023-03-05T09:35:22.466Z,96429.81
2023-03-05T09:37:51.438Z,96435.81
2023-03-05T09:40:27.739Z,96432.31
2023-03-05T09:43:24.589Z,96434.31
2023-03-05T09:46:01.604Z,96430.75
2023-03-05T09:48:44.556Z,96426.91
2023-03-05T09:51:18.067Z,96424.16
2023-03-05T09:54:01.684Z,96410.38
2023-03-05T09:56:43.462Z,96406.22
2023-03-05T09:59:36.036Z,96393.25
2023-03-05T10:02:20.280Z,96410.91
2023-03-05T10:04:58.574Z,96404.84
2023-03-05T10:07:36.734Z,96406.38
2023-03-05T10:10:33.196Z,96409.75
2023-03-05T10:13:11.441Z,96400.06
2023-03-05T10:15:51.956Z,96387.13
2023-03-05T10:18:28.120Z,96393.09
2023-03-05T10:21:22.239Z,96395.34
2023-03-05T10:24:17.863Z,96391.28
2023-03-05T10:26:53.885Z,96379.56
2023-03-05T10:29:48.170Z,96383.38
2023-03-05T10:32:21.150Z,96374.38
2023-03-05T10:35:11.376Z,96365.53
2023-03-05T10:38:08.766Z,96364.91
2023-03-05T10:41:19.924Z,96306.66
2023-03-05T10:43:51.635Z,96339.25
2023-03-05T10:46:22.568Z,96336.03
2023-03-05T10:49:21.127Z,96346.06
2023-03-05T10:51:53.484Z,96340.88
2023-03-05T10:54:38.783Z,96329.19
2023-03-05T10:57:15.796Z,96328.50
2023-03-05T10:59:48.968Z,96324.59
2023-03-05T11:02:16.264Z,96330.09
2023-03-05T11:04:44.273Z,96323.91
2023-03-05T11:07:17.187Z,96324.00
2023-03-05T11:10:04.606Z,96310.81
2023-03-05T11:12:39.743Z,96288.34
2023-03-05T11:15:26.343Z,96304.28
2023-03-05T11:18:17.883Z,96290.38
2023-03-05T11:20:45.495Z,96279.13
2023-03-05T11:23:18.595Z,96284.09
2023-03-05T11:26:13.059Z,96276.66
2023-03-05T11:28:52.299Z,96267.78
2023-03-05T11:31:19.273Z,96268.16
2023-03-05T11:34:04.941Z,96258.44
2023-03-05T11:36:38.838Z,96258.94
2023-03-05T11:39:17.516Z,96260.03
2023-03-05T11:41:56.429Z,96253.09
2023-03-05T11:44:35.230Z,96257.09
2023-03-05T11:47:40.474Z,96252.72
2023-03-05T11:50:07.548Z,96252.44
2023-03-05T11:52:45.193Z,96251.53
2023-03-05T11:55:18.723Z,96243.19
2023-03-05T11:57:53.644Z,96253.94
2023-03-05T12:00:29.889Z,96255.97
2023-03-05T12:03:00.820Z,96254.72
2023-03-05T12:05:30.183Z,96245.47
2023-03-05T12:08:01.930Z,96251.31
2023-03-05T12:10:29.406Z,96260.34
2023-03-05T12:13:04.872Z,96255.22
2023-03-05T12:15:41.192Z,96248.34
2023-03-05T12:18:35.338Z,96254.13
2023-03-05T12:21:21.859Z,96249.66
2023-03-05T12:23:53.588Z,96259.88
2023-03-05T12:27:02.353Z,96257.53
2023-03-05T12:29:46.761Z,96252.06
2023-03-05T12:32:25.728Z,96256.28
2023-03-05T12:35:18.492Z,96252.72
2023-03-05T12:37:45.456Z,96268.63
2023-03-05T12:40:28.227Z,96262.91
2023-03-05T12:43:06.377Z,96257.53
2023-03-05T12:45:41.324Z,96250.72
2023-03-05T12:48:12.674Z,96237.31
2023-03-05T12:50:39.682Z,96236.09
2023-03-05T12:53:14.289Z,96231.97
2023-03-05T12:55:46.039Z,96245.72
2023-03-05T12:58:43.312Z,96250.75
2023-03-05T13:01:28.803Z,96246.19
2023-03-05T13:04:11.817Z,96228.59
2023-03-05T13:06:39.689Z,96249.69
2023-03-05T13:09:25.025Z,96237.84
2023-03-05T13:11:54.304Z,96250.09
2023-03-05T13:14:33.336Z,96251.88
2023-03-05T13:17:01.677Z,96247.78
2023-03-05T13:19:32.988Z,96238.81
2023-03-05T13:22:02.836Z,96223.06
2023-03-05T13:24:30.755Z,96227.13
2023-03-05T13:26:57.744Z,96230.19
2023-03-05T13:29:30.983Z,96223.44
2023-03-05T13:32:04.373Z,96212.44
2023-03-05T13:34:47.169Z,96219.69
2023-03-05T13:37:24.208Z,96218.25
2023-03-05T13:40:07.457Z,96216.03
2023-03-05T13:42:36.314Z,96211.34
2023-03-05T13:45:20.972Z,96207.63
2023-03-05T13:47:58.213Z,96200.41
2023-03-05T13:50:37.318Z,96201.25
2023-03-05T13:53:19.279Z,96200.13
2023-03-05T13:55:50.748Z,96189.03
2023-03-05T13:58:44.456Z,96185.16
2023-03-05T14:01:18.475Z,96180.63
2023-03-05T14:03:50.455Z,96179.88
2023-03-05T14:06:21.700Z,96171.75
2023-03-05T14:08:54.578Z,96159.81
2023-03-05T14:11:21.625Z,96171.38
2023-03-05T14:13:49.395Z,96169.25
2023-03-05T14:16:26.482Z,96171.19
2023-03-05T14:19:02.309Z,96164.25
2023-03-05T14:21:50.510Z,96162.94
2023-03-05T14:24:28.688Z,96149.63
2023-03-05T14:27:03.394Z,96156.28
2023-03-05T14:29:32.793Z,96150.09
2023-03-05T14:32:02.967Z,96144.06
2023-03-05T14:34:35.070Z,96145.53
2023-03-05T14:37:05.472Z,96134.72
2023-03-05T14:39:35.217Z,96135.31
2023-03-05T14:42:24.357Z,96134.00
2023-03-05T14:44:51.524Z,96127.63
2023-03-05T14:47:18.525Z,96119.47
2023-03-05T14:49:45.343Z,96134.25
2023-03-05T14:52:16.980Z,96121.69
2023-03-05T14:54:44.755Z,96122.22
2023-03-05T14:57:24.484Z,96121.13
2023-03-05T14:59:51.371Z,96124.28
2023-03-05T15:02:21.910Z,96114.97
2023-03-05T15:04:49.309Z,96123.56
2023-03-05T15:07:32.367Z,96124.28
2023-03-05T15:10:02.129Z,96114.84
2023-03-05T15:12:30.590Z,96135.56
2023-03-05T15:14:57.741Z,96123.00
2023-03-05T15:17:35.284Z,96119.78
2023-03-05T15:20:08.105Z,96123.94
2023-03-05T15:22:35.162Z,96120.22
2023-03-05T15:25:02.487Z,96117.75
2023-03-05T15:27:30.206Z,96127.84
2023-03-05T15:29:57.277Z,96116.00
2023-03-05T15:32:27.514Z,96126.81
2023-03-05T15:34:55.038Z,96025.38
2023-03-05T15:37:22.306Z,96124.41
2023-03-05T15:39:50.028Z,96123.38
2023-03-05T15:42:17.248Z,96131.50
2023-03-05T15:44:44.272Z,96123.56
2023-03-05T15:47:11.524Z,96128.91
2023-03-05T15:49:38.952Z,96128.28
2023-03-05T15:52:05.887Z,96124.38
2023-03-05T15:54:32.874Z,96129.53
2023-03-05T15:56:59.817Z,96134.09
2023-03-05T15:59:27.871Z,96137.97
2023-03-05T16:01:54.897Z,96137.22
2023-03-05T16:04:21.932Z,96113.84
2023-03-05T16:06:50.520Z,96132.22
2023-03-05T16:09:20.771Z,96141.22
2023-03-05T16:11:51.671Z,96131.78
2023-03-05T16:14:24.438Z,96133.28
2023-03-05T16:16:55.285Z,96133.34
2023-03-05T16:19:24.482Z,96135.19
2023-03-05T16:21:51.418Z,96129.25
2023-03-05T16:24:18.513Z,96141.69
2023-03-05T16:26:45.432Z,96141.94
2023-03-05T16:29:12.726Z,96138.84
2023-03-05T16:31:41.656Z,96158.13
2023-03-05T16:34:09.594Z,96166.53
2023-03-05T16:36:36.644Z,96158.13
2023-03-05T16:39:05.283Z,96149.94
2023-03-05T16:41:32.913Z,96162.06
2023-03-05T16:44:00.320Z,96150.72
2023-03-05T16:46:29.625Z,96157.28
2023-03-05T16:48:58.036Z,96156.22
2023-03-05T16:51:26.411Z,96162.31
2023-03-05T16:53:55.612Z,96158.06
2023-03-05T16:56:23.070Z,96172.53
2023-03-05T16:58:53.210Z,96177.28
2023-03-05T17:01:21.206Z,96158.69
2023-03-05T17:03:48.859Z,96177.97
2023-03-05T17:06:18.772Z,96184.78
2023-03-05T17:08:47.511Z,96181.09
2023-03-05T17:11:14.871Z,96194.81
2023-03-05T17:13:42.522Z,96191.31
2023-03-05T17:16:11.993Z,96178.41
2023-03-05T17:18:39.110Z,96191.03
2023-03-05T17:21:07.747Z,96191.91
2023-03-05T17:23:36.525Z,96188.31
2023-03-05T17:26:09.081Z,96198.06
2023-03-05T17:28:36.116Z,96182.78
2023-03-05T17:31:04.094Z,96193.78
2023-03-05T17:33:35.745Z,96196.53
2023-03-05T17:36:03.299Z,96202.91
2023-03-05T17:38:31.535Z,96200.94
2023-03-05T17:40:58.641Z,96194.59
2023-03-05T17:43:25.741Z,96204.28
2023-03-05T17:45:52.932Z,96205.50
2023-03-05T17:48:19.998Z,96208.47
2023-03-05T17:50:47.007Z,96209.63
2023-03-05T17:53:14.156Z,96189.75
2023-03-05T17:55:41.074Z,96209.38
2023-03-05T17:58:08.368Z,96200.22
2023-03-05T18:00:36.117Z,96198.56
2023-03-05T18:03:03.085Z,96204.69
2023-03-05T18:05:30.648Z,96201.41
2023-03-05T18:07:57.963Z,96199.44
2023-03-05T18:10:26.486Z,96196.09
2023-03-05T18:12:54.461Z,96200.97
2023-03-05T18:15:23.177Z,96211.56
2023-03-05T18:17:50.805Z,96209.47
2023-03-05T18:20:26.586Z,96190.03
2023-03-05T18:22:54.346Z,96207.84
2023-03-05T18:25:22.208Z,96210.34
2023-03-05T18:27:49.282Z,96206.25
2023-03-05T18:30:16.273Z,96204.16
2023-03-05T18:32:44.358Z,96220.06
2023-03-05T18:35:12.231Z,96223.75
2023-03-05T18:37:39.976Z,96212.91
2023-03-05T18:40:09.759Z,96208.59
2023-03-05T18:42:37.577Z,96221.28
2023-03-05T18:45:06.863Z,96221.91
2023-03-05T18:47:34.092Z,96218.00
2023-03-05T18:50:01.267Z,96222.56
2023-03-05T18:52:29.798Z,96230.97
2023-03-05T18:54:59.860Z,96229.31
2023-03-05T18:57:27.139Z,96227.50
2023-03-05T18:59:54.259Z,96242.97
2023-03-05T19:02:21.199Z,96240.09
2023-03-05T19:04:48.241Z,96227.19
2023-03-05T19:07:15.394Z,96232.34
2023-03-05T19:09:59.706Z,96242.56
2023-03-05T19:12:35.263Z,96241.59
2023-03-05T19:15:03.607Z,96244.34
2023-03-05T19:17:32.418Z,96246.06
2023-03-05T19:19:59.988Z,96239.31
2023-03-05T19:22:28.602Z,96247.50
2023-03-05T19:24:56.086Z,96241.00
2023-03-05T19:27:24.947Z,96263.75
2023-03-05T19:29:53.808Z,96266.19
2023-03-05T19:32:24.288Z,96257.75
2023-03-05T19:34:55.606Z,96258.28
2023-03-05T19:37:22.698Z,96261.25
2023-03-05T19:39:49.797Z,96256.94
2023-03-05T19:42:16.815Z,96240.28
2023-03-05T19:44:43.755Z,96236.50
2023-03-05T19:47:11.093Z,96266.63
2023-03-05T19:49:38.105Z,96267.00
2023-03-05T19:52:06.346Z,96267.22
2023-03-05T19:54:33.588Z,96265.78
2023-03-05T19:57:00.591Z,96265.78
2023-03-05T19:59:27.626Z,96280.38
2023-03-05T20:01:54.852Z,96271.59
2023-03-05T20:04:24.235Z,96273.56
2023-03-05T20:06:51.201Z,96274.09
2023-03-05T20:09:18.160Z,96280.00
2023-03-05T20:11:46.005Z,96272.88
2023-03-05T20:14:14.772Z,96265.22
2023-03-05T20:16:43.469Z,96263.69
2023-03-05T20:19:16.860Z,96283.72
2023-03-05T20:21:45.542Z,96278.56
2023-03-05T20:24:15.124Z,96276.28
2023-03-05T20:26:44.093Z,96291.00
2023-03-05T20:29:12.094Z,96280.00
2023-03-05T20:31:40.177Z,96288.25
2023-03-05T20:34:10.007Z,96267.25
2023-03-05T20:36:37.166Z,96291.66
2023-03-05T20:39:07.492Z,96280.00
2023-03-05T20:41:37.705Z,96280.28
2023-03-05T20:44:06.256Z,96276.13
2023-03-05T20:46:36.229Z,96268.44
2023-03-05T20:49:21.615Z,96274.44
2023-03-05T20:51:50.875Z,96287.22
2023-03-05T20:54:18.708Z,96277.22
2023-03-05T20:56:45.919Z,96256.00
2023-03-05T20:59:13.151Z,96271.94
2023-03-05T21:01:41.029Z,96256.84
2023-03-05T21:04:09.016Z,96267.91
2023-03-05T21:06:36.960Z,96271.00
2023-03-05T21:09:04.222Z,96258.19
2023-03-05T21:11:32.127Z,96269.94
2023-03-05T21:13:59.453Z,96275.88
2023-03-05T21:16:28.136Z,96269.75
2023-03-05T21:18:57.397Z,96257.31
2023-03-05T21:21:24.918Z,96255.63
2023-03-05T21:23:52.320Z,96263.81
2023-03-05T21:26:19.382Z,96268.50
2023-03-05T21:28:46.352Z,96260.66
2023-03-05T21:31:21.396Z,96256.53
2023-03-05T21:33:49.494Z,96263.34
2023-03-05T21:36:19.386Z,96269.06
2023-03-05T21:38:50.718Z,96253.53
2023-03-05T21:41:20.371Z,96259.66
2023-03-05T21:43:47.276Z,96267.19
2023-03-05T21:46:14.448Z,96268.41
2023-03-05T21:48:41.413Z,96269.13
2023-03-05T21:51:11.564Z,96271.06
2023-03-05T21:53:38.519Z,96263.81
2023-03-05T21:56:12.401Z,96262.97
2023-03-05T21:58:39.473Z,96269.06
2023-03-05T22:01:06.433Z,96267.91
2023-03-05T22:03:33.418Z,96267.03
2023-03-05T22:06:00.414Z,96262.16
2023-03-05T22:08:29.969Z,96269.41
2023-03-05T22:10:57.035Z,96258.84
2023-03-05T22:13:23.984Z,96272.22
2023-03-05T22:15:53.486Z,96262.88
2023-03-05T22:18:23.414Z,96273.25
2023-03-05T22:20:50.871Z,96267.94
2023-03-05T22:23:19.081Z,96256.59
2023-03-05T22:25:46.034Z,96282.44
2023-03-05T22:28:13.760Z,96280.53
2023-03-05T22:30:45.238Z,96271.28
2023-03-05T22:33:12.866Z,96260.56
2023-03-05T22:35:41.260Z,96280.50
2023-03-05T22:38:10.072Z,96273.09
2023-03-05T22:40:41.524Z,96272.31
2023-03-05T22:43:08.597Z,96269.13
2023-03-05T22:45:35.579Z,96276.38
2023-03-05T22:48:02.795Z,96273.16
2023-03-05T22:50:29.862Z,96286.97
2023-03-05T22:52:56.986Z,96287.78
2023-03-05T22:55:24.016Z,96284.16
2023-03-05T22:57:51.155Z,96277.41
2023-03-05T23:00:27.018Z,96280.22
2023-03-05T23:02:54.293Z,96277.50
2023-03-05T23:05:21.496Z,96278.25
2023-03-05T23:07:49.512Z,96282.38
2023-03-05T23:10:20.862Z,96274.66
2023-03-05T23:12:50.500Z,96285.47
2023-03-05T23:15:23.473Z,96280.22
2023-03-05T23:17:50.452Z,96294.09
2023-03-05T23:20:20.952Z,96297.44
2023-03-05T23:22:49.073Z,96290.81
2023-03-05T23:25:16.614Z,96282.00
2023-03-05T23:27:45.050Z,96293.72
2023-03-05T23:30:31.172Z,96302.25
2023-03-05T23:33:14.651Z,96289.78
2023-03-05T23:36:01.939Z,96293.84
2023-03-05T23:38:30.215Z,96294.34
2023-03-05T23:41:01.481Z,96280.91
2023-03-05T23:43:29.274Z,96295.09
2023-03-05T23:45:56.988Z,96298.94
2023-03-05T23:48:25.942Z,96285.94
2023-03-05T23:50:53.193Z,96301.88
2023-03-05T23:53:25.987Z,96291.50
2023-03-05T23:55:53.825Z,96291.59
2023-03-05T23:58:21.580Z,96288.94
